Time;durP1;ratioP1;P1;durP2;ratioP2;P2;SDS_P1;SDS_P2;PMS_P1;PMS_P2;Temp;Humidity;BMP_temperature;BMP_pressure;BME280_temperature;BME280_humidity;BME280_pressure;Samples;Min_cycle;Max_cycle;Signal;HPM_P1;HPM_P2
2024/04/18 00:01:00;;;;;;;7.70;5.20;;;;;;;15.83;51.40;98678.27;108209;1256;70996;-65
2024/04/18 00:03:26;;;;;;;10.90;5.00;;;;;;;15.77;51.52;98666.71;108267;1254;72510;-65
2024/04/18 00:05:53;;;;;;;13.90;4.70;;;;;;;15.77;51.50;98664.59;108200;1251;61063;-63
2024/04/18 00:08:21;;;;;;;5.70;4.30;;;;;;;15.70;51.53;98671.45;108278;1253;61131;-65
2024/04/18 00:10:51;;;;;;;7.00;3.90;;;;;;;15.68;51.71;98664.91;108198;1254;74703;-65
2024/04/18 00:13:35;;;;;;;7.60;4.80;;;;;;;15.73;51.63;98664.38;108196;1256;70097;-63
2024/04/18 00:16:02;;;;;;;8.10;4.70;;;;;;;15.70;51.56;98652.36;108154;1256;61123;-64
2024/04/18 00:18:32;;;;;;;8.40;4.80;;;;;;;15.68;51.66;98641.55;108175;1253;61145;-64
2024/04/18 00:21:19;;;;;;;6.70;5.00;;;;;;;15.68;51.48;98631.94;108100;1257;61314;-65
2024/04/18 00:23:54;;;;;;;9.50;5.00;;;;;;;15.81;51.27;98630.83;108202;1254;74646;-64
2024/04/18 00:26:40;;;;;;;7.20;5.50;;;;;;;15.74;51.30;98634.34;108227;1254;70131;-64
2024/04/18 00:29:07;;;;;;;9.60;5.00;;;;;;;15.65;51.47;98637.88;108172;1254;72413;-65
2024/04/18 00:31:34;;;;;;;9.30;5.40;;;;;;;15.80;51.21;98642.21;108205;1254;61232;-66
2024/04/18 00:34:01;;;;;;;12.50;5.40;;;;;;;15.79;51.23;98648.14;108164;1252;61125;-67
2024/04/18 00:36:27;;;;;;;9.40;5.80;;;;;;;15.82;51.11;98649.84;108042;1257;74662;-64
2024/04/18 00:38:54;;;;;;;11.10;5.80;;;;;;;15.94;50.92;98647.62;108210;1254;69041;-65
2024/04/18 00:41:21;;;;;;;9.10;5.00;;;;;;;16.06;50.62;98653.14;108356;1254;72885;-65
2024/04/18 00:43:56;;;;;;;9.10;5.10;;;;;;;16.02;50.69;98657.77;108192;1254;61812;-65
2024/04/18 00:46:31;;;;;;;8.40;5.20;;;;;;;15.97;50.93;98657.29;108274;1254;61109;-63
2024/04/18 00:48:58;;;;;;;8.00;5.60;;;;;;;16.01;50.86;98657.08;108226;1254;74303;-64
2024/04/18 00:51:25;;;;;;;11.30;5.60;;;;;;;16.15;50.50;98652.39;108179;1254;69208;-65
2024/04/18 00:53:52;;;;;;;10.30;5.80;;;;;;;16.19;50.43;98644.60;108060;1257;72635;-65
2024/04/18 00:56:25;;;;;;;6.70;5.40;;;;;;;16.10;50.44;98643.63;108273;1254;61224;-63
2024/04/18 00:59:12;;;;;;;10.70;5.20;;;;;;;16.03;50.60;98640.31;108052;1253;61100;-64
2024/04/18 01:01:39;;;;;;;10.40;5.20;;;;;;;16.03;50.68;98634.98;108088;1254;73190;-64
2024/04/18 01:04:05;;;;;;;7.40;5.00;;;;;;;16.08;50.56;98628.38;108128;1254;70904;-64
2024/04/18 01:06:41;;;;;;;7.80;5.20;;;;;;;16.07;50.56;98626.88;108234;1254;72547;-65
2024/04/18 01:09:15;;;;;;;16.60;6.10;;;;;;;16.09;50.66;98626.30;108183;1253;61223;-66
2024/04/18 01:12:02;;;;;;;6.70;4.80;;;;;;;16.02;50.77;98631.54;108023;1254;60747;-64
2024/04/18 01:14:29;;;;;;;7.60;5.70;;;;;;;15.95;51.07;98631.98;108292;1252;74812;-65
2024/04/18 01:17:02;;;;;;;8.20;5.00;;;;;;;15.91;51.18;98632.84;108259;1256;69052;-65
2024/04/18 01:19:29;;;;;;;9.40;4.50;;;;;;;15.93;51.19;98628.25;108355;1251;72767;-65
2024/04/18 01:21:55;;;;;;;9.90;6.00;;;;;;;15.91;51.37;98632.58;108228;1253;61123;-65
2024/04/18 01:24:24;;;;;;;9.80;5.60;;;;;;;15.86;51.59;98637.85;108223;1253;60847;-65
2024/04/18 01:26:51;;;;;;;7.00;5.70;;;;;;;15.91;51.53;98636.31;108223;1256;74025;-65
2024/04/18 01:29:18;;;;;;;7.10;5.60;;;;;;;15.95;51.59;98638.66;108174;1257;69909;-64
2024/04/18 01:32:03;;;;;;;10.60;7.10;;;;;;;16.01;51.36;98644.35;108183;1254;72181;-64
2024/04/18 01:34:30;;;;;;;8.70;5.80;;;;;;;15.95;51.54;98645.53;108233;1252;61223;-65
2024/04/18 01:37:16;;;;;;;10.80;8.10;;;;;;;15.97;51.63;98647.73;108170;1254;61102;-65
2024/04/18 01:39:43;;;;;;;6.40;5.00;;;;;;;15.97;51.55;98649.50;108220;1254;74530;-65
2024/04/18 01:42:11;;;;;;;10.20;7.00;;;;;;;16.02;51.66;98656.71;108241;1253;70304;-63
2024/04/18 01:44:41;;;;;;;11.80;6.90;;;;;;;16.01;51.68;98656.43;108204;1254;72472;-66
2024/04/18 01:47:27;;;;;;;6.60;5.60;;;;;;;16.01;51.72;98653.80;108224;1257;61106;-64
2024/04/18 01:50:09;;;;;;;14.20;7.30;;;;;;;16.19;51.37;98654.90;108281;1253;61189;-65
2024/04/18 01:52:36;;;;;;;14.50;7.80;;;;;;;16.22;51.30;98653.40;108297;1254;74675;-63
2024/04/18 01:55:04;;;;;;;13.30;7.20;;;;;;;16.28;51.09;98650.65;108215;1255;68712;-64
2024/04/18 01:57:37;;;;;;;12.60;7.20;;;;;;;16.34;51.04;98643.94;108243;1253;72734;-64
2024/04/18 02:00:22;;;;;;;8.30;5.70;;;;;;;16.38;50.88;98640.52;108187;1251;61145;-65
2024/04/18 02:02:48;;;;;;;16.30;6.60;;;;;;;16.23;51.25;98639.20;108177;1254;61173;-65
2024/04/18 02:05:34;;;;;;;11.20;6.50;;;;;;;16.20;51.35;98643.48;108227;1254;75630;-64
2024/04/18 02:08:13;;;;;;;9.50;5.80;;;;;;;16.20;51.39;98638.34;108212;1253;70802;-63
2024/04/18 02:10:48;;;;;;;9.50;6.20;;;;;;;16.25;51.36;98640.45;108245;1251;72677;-65
2024/04/18 02:13:34;;;;;;;12.10;6.00;;;;;;;16.19;51.51;98630.67;108295;1251;61163;-64
2024/04/18 02:16:01;;;;;;;7.50;6.00;;;;;;;16.14;51.60;98626.25;108250;1251;61239;-65
2024/04/18 02:18:46;;;;;;;10.30;6.60;;;;;;;16.17;51.60;98619.46;108252;1251;73082;-64
2024/04/18 02:21:13;;;;;;;7.60;5.60;;;;;;;16.21;51.51;98616.83;108235;1251;70653;-65
2024/04/18 02:23:52;;;;;;;8.40;6.00;;;;;;;16.20;51.58;98621.23;108168;1251;71213;-65
2024/04/18 02:26:18;;;;;;;10.20;6.60;;;;;;;16.07;51.97;98621.03;108244;1251;61080;-66
2024/04/18 02:28:45;;;;;;;15.00;7.30;;;;;;;16.02;52.03;98626.73;108230;1251;61160;-66
2024/04/18 02:31:18;;;;;;;13.40;7.70;;;;;;;15.91;52.17;98620.27;108249;1251;74783;-64
2024/04/18 02:33:51;;;;;;;11.90;8.10;;;;;;;15.91;52.28;98617.94;108204;1251;70267;-65
2024/04/18 02:36:19;;;;;;;11.80;6.20;;;;;;;15.97;52.21;98613.73;108194;1251;71331;-65
2024/04/18 02:38:45;;;;;;;13.30;7.60;;;;;;;16.07;52.20;98611.98;108232;1251;61014;-65
2024/04/18 02:41:12;;;;;;;15.50;8.40;;;;;;;16.07;52.08;98610.77;108155;1254;61006;-65
2024/04/18 02:43:49;;;;;;;11.20;7.40;;;;;;;15.93;52.43;98614.73;108220;1256;73901;-63
2024/04/18 02:46:16;;;;;;;14.30;9.00;;;;;;;15.89;52.58;98612.75;108209;1251;70312;-64
2024/04/18 02:49:03;;;;;;;13.30;8.30;;;;;;;15.95;52.58;98620.27;108191;1251;72960;-66
2024/04/18 02:51:30;;;;;;;15.70;8.30;;;;;;;15.98;52.47;98625.52;108265;1256;61233;-65
2024/04/18 02:54:12;;;;;;;18.50;10.10;;;;;;;15.91;52.70;98625.23;108239;1251;61109;-64
2024/04/18 02:56:40;;;;;;;16.20;9.80;;;;;;;15.80;52.92;98622.05;108191;1251;74663;-65
2024/04/18 02:59:10;;;;;;;16.80;10.90;;;;;;;15.88;52.76;98615.02;108232;1256;70300;-65
2024/04/18 03:01:49;;;;;;;16.20;9.80;;;;;;;15.85;52.77;98607.13;108185;1251;71285;-65
2024/04/18 03:04:16;;;;;;;14.50;9.90;;;;;;;15.80;52.86;98603.85;108262;1251;61071;-65
2024/04/18 03:06:47;;;;;;;18.70;10.50;;;;;;;15.72;53.08;98606.41;108294;1251;61164;-65
2024/04/18 03:09:14;;;;;;;16.30;10.20;;;;;;;15.69;53.08;98611.02;108249;1251;74613;-65
2024/04/18 03:11:53;;;;;;;10.70;7.70;;;;;;;15.64;53.25;98612.88;108219;1256;67717;-65
2024/04/18 03:14:41;;;;;;;18.60;10.20;;;;;;;15.63;53.44;98614.02;108180;1254;72502;-64
2024/04/18 03:17:08;;;;;;;15.20;10.60;;;;;;;15.63;53.48;98609.23;108177;1256;61205;-65
2024/04/18 03:19:54;;;;;;;15.00;9.70;;;;;;;15.74;53.24;98607.48;108221;1253;61230;-65
2024/04/18 03:22:27;;;;;;;15.70;10.30;;;;;;;15.63;53.60;98599.33;108156;1254;73250;-65
2024/04/18 03:25:00;;;;;;;13.70;9.40;;;;;;;15.52;53.98;98597.73;108125;1254;69248;-65
2024/04/18 03:27:29;;;;;;;10.90;7.20;;;;;;;15.55;53.92;98601.55;108156;1252;71598;-65
2024/04/18 03:29:56;;;;;;;14.90;8.80;;;;;;;15.62;53.83;98607.05;108120;1253;61442;-65
2024/04/18 03:32:35;;;;;;;15.90;11.00;;;;;;;15.77;53.58;98612.52;108259;1253;61214;-67
2024/04/18 03:35:05;;;;;;;14.50;9.60;;;;;;;15.77;53.51;98608.99;108227;1252;74453;-64
2024/04/18 03:37:36;;;;;;;14.40;8.90;;;;;;;15.83;53.37;98606.90;108265;1254;70410;-65
2024/04/18 03:40:23;;;;;;;21.70;11.10;;;;;;;15.89;53.20;98607.16;108191;1253;71280;-64
2024/04/18 03:43:00;;;;;;;16.10;10.30;;;;;;;15.86;53.20;98603.45;108176;1252;61222;-65
2024/04/18 03:45:27;;;;;;;16.50;10.00;;;;;;;15.93;53.12;98601.34;108205;1253;61098;-65
2024/04/18 03:47:53;;;;;;;13.60;9.90;;;;;;;15.95;52.99;98600.79;108226;1254;73093;-65
2024/04/18 03:50:40;;;;;;;19.00;10.90;;;;;;;15.96;52.99;98600.35;108202;1254;70379;-65
2024/04/18 03:53:17;;;;;;;17.60;10.90;;;;;;;15.97;52.84;98599.19;108171;1254;72454;-66
2024/04/18 03:55:44;;;;;;;14.80;10.50;;;;;;;15.87;53.13;98597.73;108227;1254;61116;-65
2024/04/18 03:58:10;;;;;;;15.60;9.80;;;;;;;15.88;53.19;98598.23;108147;1253;61244;-65
2024/04/18 04:00:49;;;;;;;17.60;10.60;;;;;;;15.82;53.29;98598.55;107994;1254;74703;-65
2024/04/18 04:03:16;;;;;;;16.20;9.50;;;;;;;15.82;53.57;98595.32;108202;1254;70643;-65
2024/04/18 04:05:43;;;;;;;19.80;10.90;;;;;;;15.77;53.65;98594.31;108173;1253;72657;-66
2024/04/18 04:08:10;;;;;;;11.50;8.40;;;;;;;15.77;53.69;98594.36;108215;1252;61340;-65
2024/04/18 04:10:41;;;;;;;22.30;10.70;;;;;;;15.85;53.56;98590.27;108267;1251;61129;-63
2024/04/18 04:13:07;;;;;;;15.60;10.50;;;;;;;15.86;53.62;98590.19;108272;1251;74419;-63
2024/04/18 04:15:46;;;;;;;13.00;10.10;;;;;;;15.95;53.43;98590.70;108237;1255;70180;-63
2024/04/18 04:18:33;;;;;;;17.00;10.50;;;;;;;15.92;53.53;98588.30;108298;1251;72631;-64
2024/04/18 04:21:18;;;;;;;15.00;8.80;;;;;;;15.97;53.50;98583.50;108288;1251;61079;-66
2024/04/18 04:23:45;;;;;;;12.10;9.30;;;;;;;15.97;53.44;98584.85;108240;1251;61109;-63
2024/04/18 04:26:12;;;;;;;17.50;11.10;;;;;;;16.09;53.14;98581.73;108254;1251;74635;-64
2024/04/18 04:28:39;;;;;;;14.20;10.00;;;;;;;16.21;52.94;98581.60;108224;1251;70097;-65
2024/04/18 04:31:05;;;;;;;15.00;8.80;;;;;;;16.29;52.77;98582.02;108213;1251;61338;-61
2024/04/18 04:33:32;;;;;;;14.50;9.50;;;;;;;16.24;52.95;98579.41;108184;1251;61514;-65
2024/04/18 04:35:59;;;;;;;16.60;10.10;;;;;;;16.10;53.24;98576.69;108227;1256;61237;-64
2024/04/18 04:38:26;;;;;;;15.10;10.10;;;;;;;16.20;53.03;98574.66;108261;1251;74431;-65
2024/04/18 04:40:52;;;;;;;12.10;9.10;;;;;;;16.25;52.84;98569.41;108255;1251;61227;-64
2024/04/18 04:43:20;;;;;;;16.40;10.00;;;;;;;16.17;53.00;98570.80;108283;1251;72618;-65
2024/04/18 04:45:46;;;;;;;15.90;9.90;;;;;;;16.15;53.14;98570.13;108198;1251;61979;-64
2024/04/18 04:48:13;;;;;;;12.20;9.20;;;;;;;16.18;53.13;98570.23;108252;1251;61107;-65
2024/04/18 04:50:59;;;;;;;12.80;9.30;;;;;;;16.19;53.16;98569.73;108225;1251;74673;-65
2024/04/18 04:53:32;;;;;;;12.00;8.70;;;;;;;16.31;52.96;98570.34;108199;1250;70152;-65
2024/04/18 04:55:59;;;;;;;14.50;8.60;;;;;;;16.35;52.98;98566.46;108273;1252;72469;-65
2024/04/18 04:58:26;;;;;;;11.80;8.80;;;;;;;16.39;52.96;98563.81;108294;1251;61205;-65
2024/04/18 05:00:56;;;;;;;14.20;9.30;;;;;;;16.45;52.73;98562.52;108282;1251;61202;-64
2024/04/18 05:03:36;;;;;;;15.30;9.30;;;;;;;16.57;52.47;98561.85;108307;1251;74540;-65
2024/04/18 05:06:22;;;;;;;12.40;8.80;;;;;;;16.71;52.14;98560.67;108353;1251;70454;-62
2024/04/18 05:09:11;;;;;;;12.60;8.80;;;;;;;16.75;52.09;98552.34;108323;1251;72709;-64
2024/04/18 05:11:38;;;;;;;12.00;8.40;;;;;;;16.72;52.05;98552.96;108250;1251;61241;-65
2024/04/18 05:14:24;;;;;;;15.90;8.90;;;;;;;16.80;51.73;98558.08;108313;1251;61269;-63
2024/04/18 05:16:51;;;;;;;14.30;9.10;;;;;;;16.63;52.15;98556.25;108291;1251;74668;-66
2024/04/18 05:19:20;;;;;;;12.90;7.80;;;;;;;16.51;52.32;98559.89;108325;1251;70331;-65
2024/04/18 05:21:46;;;;;;;11.60;8.20;;;;;;;16.52;52.48;98562.48;108270;1251;72385;-65
2024/04/18 05:24:33;;;;;;;9.20;7.20;;;;;;;16.54;52.31;98559.08;108349;1251;61119;-66
2024/04/18 05:27:00;;;;;;;16.90;8.50;;;;;;;16.62;52.28;98561.12;108308;1251;61189;-65
2024/04/18 05:32:12;;;;;;;12.90;7.60;;;;;;;16.86;51.85;98561.86;108214;1251;70464;-65
2024/04/18 05:34:59;;;;;;;17.80;7.60;;;;;;;16.84;51.83;98566.98;108205;1255;72538;-65
2024/04/18 05:37:25;;;;;;;9.20;7.10;;;;;;;16.87;51.60;98563.73;108202;1251;61202;-65
2024/04/18 05:39:53;;;;;;;11.80;7.50;;;;;;;17.01;51.24;98562.97;108035;1251;203939;-65
2024/04/18 05:43:38;;;;;;;11.50;7.70;;;;;;;14.90;56.75;98571.48;104927;1289;600826;-65
2024/04/18 05:46:05;;;;;;;14.60;7.00;;;;;;;15.72;54.27;98571.58;107244;1263;61927;-65
2024/04/18 05:48:33;;;;;;;8.20;6.50;;;;;;;15.47;54.90;98564.05;107268;1263;59951;-65
2024/04/18 05:51:00;;;;;;;9.10;6.20;;;;;;;15.33;55.30;98562.70;107281;1263;72329;-64
2024/04/18 05:53:27;;;;;;;10.60;7.20;;;;;;;15.28;55.47;98566.25;107299;1263;70842;-65
2024/04/18 05:55:55;;;;;;;10.40;6.80;;;;;;;15.28;55.54;98564.51;107672;1262;72733;-65
2024/04/18 05:58:22;;;;;;;10.00;6.40;;;;;;;15.27;55.45;98561.41;107784;1256;148804;-63
2024/04/18 06:00:56;;;;;;;14.10;7.50;;;;;;;15.27;55.49;98558.73;107946;1254;61147;-65
2024/04/18 06:03:24;;;;;;;10.60;6.60;;;;;;;15.44;55.20;98566.74;107913;1253;71876;-64
2024/04/18 06:05:52;;;;;;;9.60;6.70;;;;;;;15.53;54.92;98563.72;107916;1253;70462;-64
2024/04/18 06:08:19;;;;;;;7.60;6.00;;;;;;;15.70;54.68;98557.55;107935;1253;72760;-65
2024/04/18 06:10:47;;;;;;;11.10;6.90;;;;;;;15.71;54.69;98557.84;107913;1254;60301;-64
2024/04/18 06:13:22;;;;;;;10.30;6.40;;;;;;;15.76;54.81;98561.35;107910;1254;60465;-65
2024/04/18 06:15:50;;;;;;;7.30;5.90;;;;;;;15.86;54.61;98567.02;107900;1254;73103;-65
2024/04/18 06:18:18;;;;;;;9.30;5.90;;;;;;;15.93;54.59;98576.57;107958;1255;70456;-65
2024/04/18 06:20:46;;;;;;;6.60;5.40;;;;;;;16.08;54.10;98583.08;107870;1254;71488;-65
2024/04/18 06:23:14;;;;;;;6.60;5.10;;;;;;;15.98;54.04;98584.21;107901;1254;60302;-65
2024/04/18 06:25:41;;;;;;;8.10;5.40;;;;;;;15.98;54.09;98583.88;107966;1259;60423;-65
2024/04/18 06:28:10;;;;;;;7.60;5.00;;;;;;;15.93;54.11;98585.23;107899;1254;73086;-65
2024/04/18 06:30:38;;;;;;;8.10;5.40;;;;;;;15.89;54.30;98588.37;107891;1254;69569;-65
2024/04/18 06:33:11;;;;;;;10.60;5.40;;;;;;;15.91;54.21;98592.65;107830;1256;71489;-65
2024/04/18 06:35:41;;;;;;;8.30;5.10;;;;;;;15.83;54.31;98594.16;108067;1254;60574;-65
2024/04/18 06:38:08;;;;;;;10.30;5.50;;;;;;;15.85;54.34;98594.34;108166;1253;60303;-65
2024/04/18 06:40:35;;;;;;;13.80;6.20;;;;;;;15.83;54.33;98594.88;108076;1253;73163;-65
2024/04/18 06:43:03;;;;;;;9.40;5.20;;;;;;;15.73;54.59;98591.29;108013;1252;70491;-66
2024/04/18 06:45:30;;;;;;;8.10;5.80;;;;;;;15.80;54.39;98591.39;108082;1252;72925;-65
2024/04/18 06:47:58;;;;;;;8.20;5.20;;;;;;;15.88;54.23;98590.56;108105;1253;60597;-66
2024/04/18 06:50:26;;;;;;;7.80;4.50;;;;;;;15.84;54.39;98583.84;108082;1252;60387;-65
2024/04/18 06:52:54;;;;;;;6.60;4.70;;;;;;;15.75;54.65;98583.11;108005;1253;74049;-66
2024/04/18 06:55:22;;;;;;;8.70;4.90;;;;;;;15.76;54.80;98579.04;108080;1253;69646;-66
2024/04/18 06:57:50;;;;;;;6.60;3.90;;;;;;;15.82;54.74;98580.99;108101;1252;72836;-66
2024/04/18 07:00:18;;;;;;;7.60;4.80;;;;;;;15.80;54.63;98576.56;108058;1253;60908;-64
2024/04/18 07:02:45;;;;;;;7.20;4.40;;;;;;;15.94;54.68;98569.56;108082;1253;60465;-65
2024/04/18 07:05:31;;;;;;;6.70;4.10;;;;;;;16.04;54.16;98574.74;108190;1253;73898;-65
2024/04/18 07:08:18;;;;;;;8.70;4.40;;;;;;;16.06;53.94;98574.22;108141;1256;69648;-66
2024/04/18 07:10:45;;;;;;;9.70;4.90;;;;;;;16.00;54.18;98573.82;108030;1253;72911;-66
2024/04/18 07:13:28;;;;;;;5.40;3.90;;;;;;;15.95;54.36;98571.39;107892;1253;60300;-66
2024/04/18 07:16:00;;;;;;;7.60;4.60;;;;;;;15.94;54.33;98564.20;107952;1252;61399;-65
2024/04/18 07:18:46;;;;;;;6.60;4.30;;;;;;;16.01;54.33;98565.90;108034;1257;73341;-66
2024/04/18 07:21:14;;;;;;;15.70;9.90;;;;;;;16.03;54.22;98572.88;107855;1253;69301;-65
2024/04/18 07:23:42;;;;;;;10.30;5.90;;;;;;;16.15;53.85;98578.73;107897;1253;71834;-65
2024/04/18 07:26:09;;;;;;;6.50;4.00;;;;;;;16.17;53.89;98577.04;107932;1258;60983;-65
2024/04/18 07:28:36;;;;;;;6.70;4.10;;;;;;;16.09;53.81;98574.98;107967;1253;60192;-65
2024/04/18 07:31:04;;;;;;;4.90;3.40;;;;;;;15.93;53.93;98575.45;107945;1252;72640;-65
2024/04/18 07:33:33;;;;;;;5.50;3.50;;;;;;;15.92;53.99;98572.52;107916;1258;69446;-66
2024/04/18 07:36:15;;;;;;;6.30;3.90;;;;;;;16.00;53.36;98578.80;107931;1253;72807;-65
2024/04/18 07:38:42;;;;;;;8.50;3.50;;;;;;;15.89;53.35;98579.85;107912;1253;60310;-64
2024/04/18 07:41:09;;;;;;;6.60;3.50;;;;;;;15.87;53.22;98580.97;107906;1253;60309;-66
2024/04/18 07:43:37;;;;;;;8.20;3.70;;;;;;;15.86;53.16;98584.57;107923;1253;73897;-66
2024/04/18 07:46:04;;;;;;;5.90;3.70;;;;;;;15.76;53.36;98587.20;107904;1252;70437;-66
2024/04/18 07:48:32;;;;;;;6.90;3.90;;;;;;;15.68;53.75;98580.15;107937;1253;72772;-64
2024/04/18 07:51:00;;;;;;;4.70;3.00;;;;;;;15.79;54.17;98584.29;108001;1253;60454;-65
2024/04/18 07:53:27;;;;;;;8.10;4.10;;;;;;;15.96;54.12;98584.98;107946;1253;60294;-65
2024/04/18 07:55:54;;;;;;;6.30;3.20;;;;;;;16.16;54.10;98583.83;107975;1253;72508;-65
2024/04/18 07:58:22;;;;;;;6.90;3.70;;;;;;;16.24;54.08;98587.79;107884;1253;69302;-65
2024/04/18 08:00:53;;;;;;;6.70;3.40;;;;;;;16.22;54.00;98582.98;107925;1253;72803;-66
2024/04/18 08:03:22;;;;;;;3.80;3.10;;;;;;;16.27;53.51;98581.80;107988;1253;62781;-65
2024/04/18 08:05:53;;;;;;;5.10;3.70;;;;;;;16.31;53.53;98572.77;107988;1253;60354;-65
2024/04/18 08:08:24;;;;;;;;;;;;;;;16.45;53.54;98564.70;108032;1253;74105;-65
2024/04/18 08:10:56;;;;;;;8.60;4.00;;;;;;;16.62;53.12;98558.06;108091;1257;70421;-65
2024/04/18 08:13:26;;;;;;;7.50;3.70;;;;;;;16.55;52.87;98549.96;108052;1253;71920;-64
2024/04/18 08:16:01;;;;;;;5.20;3.40;;;;;;;16.60;52.81;98537.66;107996;1253;62020;-66
2024/04/18 08:18:30;;;;;;;6.70;3.40;;;;;;;16.69;52.65;98538.34;108026;1253;60313;-65
2024/04/18 08:20:58;;;;;;;4.60;3.30;;;;;;;16.59;52.86;98532.48;108017;1253;73835;-65
2024/04/18 08:23:27;;;;;;;7.10;3.70;;;;;;;16.62;52.98;98532.92;108035;1253;70710;-65
2024/04/18 08:25:54;;;;;;;6.10;2.80;;;;;;;16.62;53.17;98536.33;108054;1255;74944;-66
2024/04/18 08:28:21;;;;;;;5.80;3.20;;;;;;;16.68;52.95;98538.95;108177;1252;62486;-65
2024/04/18 08:30:50;;;;;;;5.70;3.30;;;;;;;16.72;53.07;98539.84;108020;1253;62366;-65
2024/04/18 08:33:18;;;;;;;5.70;3.60;;;;;;;16.84;52.85;98541.27;107954;1253;72721;-65
2024/04/18 08:35:45;;;;;;;7.20;3.70;;;;;;;17.03;52.19;98543.17;107983;1258;69209;-65
2024/04/18 08:38:13;;;;;;;4.40;3.20;;;;;;;17.03;51.95;98540.55;107994;1253;73402;-65
2024/04/18 08:40:44;;;;;;;5.10;3.10;;;;;;;17.03;51.74;98534.11;107989;1253;63917;-65
2024/04/18 08:43:12;;;;;;;6.00;3.40;;;;;;;17.05;51.58;98530.41;107994;1253;60445;-65
2024/04/18 08:45:40;;;;;;;7.70;3.30;;;;;;;17.03;51.31;98527.75;108027;1253;72667;-65
2024/04/18 08:48:08;;;;;;;6.20;3.80;;;;;;;16.91;51.58;98524.90;107913;1253;69202;-65
2024/04/18 08:50:35;;;;;;;4.80;3.30;;;;;;;16.83;51.80;98530.43;107883;1253;71462;-65
2024/04/18 08:53:03;;;;;;;5.70;3.50;;;;;;;16.76;51.61;98531.88;107861;1256;60450;-65
2024/04/18 08:55:31;;;;;;;6.20;3.10;;;;;;;16.79;51.52;98524.20;107824;1253;60185;-65
2024/04/18 08:58:02;;;;;;;8.00;3.50;;;;;;;16.75;51.70;98516.38;108029;1253;74324;-65
2024/04/18 09:00:29;;;;;;;5.60;3.70;;;;;;;16.72;51.77;98514.30;108148;1253;72291;-65
2024/04/18 09:02:57;;;;;;;5.90;3.70;;;;;;;16.69;51.87;98515.81;107974;1253;71541;-65
2024/04/18 09:05:24;;;;;;;8.60;4.40;;;;;;;16.69;51.76;98514.95;107919;1253;62508;-65
2024/04/18 09:07:52;;;;;;;4.80;3.40;;;;;;;16.65;51.75;98509.98;108018;1252;60288;-65
2024/04/18 09:10:22;;;;;;;6.10;3.40;;;;;;;16.64;51.84;98502.82;107948;1255;73342;-65
2024/04/18 09:12:52;;;;;;;4.10;3.40;;;;;;;16.64;51.66;98498.00;107677;1253;72918;-65
2024/04/18 09:15:21;;;;;;;4.40;3.60;;;;;;;16.64;52.03;98496.10;107947;1253;71847;-65
2024/04/18 09:18:03;;;;;;;5.20;3.40;;;;;;;16.58;52.22;98493.98;107875;1253;61511;-65
2024/04/18 09:20:31;;;;;;;5.20;3.40;;;;;;;16.68;52.08;98488.96;107894;1253;60444;-65
2024/04/18 09:22:59;;;;;;;4.60;3.30;;;;;;;16.65;52.29;98482.85;108039;1253;74225;-65
2024/04/18 09:25:27;;;;;;;5.80;4.20;;;;;;;16.71;52.07;98475.64;107948;1253;69407;-65
2024/04/18 09:27:54;;;;;;;4.70;3.50;;;;;;;16.52;52.37;98476.60;107924;1253;72780;-65
2024/04/18 09:30:22;;;;;;;8.30;3.60;;;;;;;16.37;52.75;98478.22;108001;1253;60966;-65
2024/04/18 09:32:50;;;;;;;5.20;3.80;;;;;;;16.26;52.92;98474.73;107881;1253;60208;-65
2024/04/18 09:35:17;;;;;;;7.10;4.10;;;;;;;16.27;53.15;98471.00;107912;1253;76033;-64
2024/04/18 09:37:45;;;;;;;6.90;4.60;;;;;;;16.25;53.40;98470.43;107912;1253;70306;-66
2024/04/18 09:40:23;;;;;;;10.70;6.50;;;;;;;16.24;53.18;98471.37;107906;1260;73593;-66
2024/04/18 09:43:05;;;;;;;4.60;3.40;;;;;;;16.27;52.86;98471.50;107893;1253;61412;-66
2024/04/18 09:45:38;;;;;;;6.10;3.70;;;;;;;16.34;52.70;98473.17;107915;1253;62510;-65
2024/04/18 09:48:05;;;;;;;4.90;3.50;;;;;;;16.28;53.05;98469.46;108008;1253;72857;-65
2024/04/18 09:50:33;;;;;;;5.30;3.40;;;;;;;16.03;53.46;98466.30;107868;1253;71238;-66
2024/04/18 09:53:00;;;;;;;7.20;3.80;;;;;;;15.91;53.68;98462.74;107909;1253;73850;-65
2024/04/18 09:55:28;;;;;;;4.70;3.40;;;;;;;15.97;53.57;98451.77;107982;1254;60887;-65
2024/04/18 09:57:57;;;;;;;4.00;3.20;;;;;;;16.00;53.65;98449.52;107839;1259;61060;-65
2024/04/18 10:00:24;;;;;;;7.30;3.70;;;;;;;16.03;53.81;98454.62;107850;1253;73435;-65
2024/04/18 10:02:53;;;;;;;5.10;3.30;;;;;;;15.99;54.13;98449.99;107868;1253;68997;-66
2024/04/18 10:05:21;;;;;;;5.30;3.50;;;;;;;15.95;54.16;98446.08;107906;1253;73686;-66
2024/04/18 10:07:48;;;;;;;5.20;3.90;;;;;;;15.92;54.31;98441.73;107913;1261;61837;-66
2024/04/18 10:10:15;;;;;;;3.70;3.00;;;;;;;15.92;54.49;98432.52;107789;1252;61373;-66
2024/04/18 10:12:43;;;;;;;5.50;3.20;;;;;;;15.85;54.40;98427.00;107897;1253;77301;-66
2024/04/18 10:15:10;;;;;;;3.90;3.20;;;;;;;15.88;54.08;98426.20;107944;1260;70784;-65
2024/04/18 10:17:38;;;;;;;5.50;3.60;;;;;;;15.91;54.05;98424.50;107894;1258;71464;-66
2024/04/18 10:20:06;;;;;;;4.80;2.80;;;;;;;15.92;54.10;98422.80;108121;1253;63317;-65
2024/04/18 10:22:34;;;;;;;5.50;3.20;;;;;;;15.86;54.21;98418.20;108105;1256;61340;-66
2024/04/18 10:25:18;;;;;;;4.30;3.60;;;;;;;15.86;54.08;98416.80;108128;1252;76740;-65
2024/04/18 10:27:46;;;;;;;4.50;3.00;;;;;;;15.83;54.38;98419.05;108075;1252;72857;-65
2024/04/18 10:30:15;;;;;;;4.70;3.30;;;;;;;15.81;54.44;98418.67;108082;1253;71464;-66
2024/04/18 10:32:44;;;;;;;5.10;2.90;;;;;;;15.91;54.20;98417.98;108047;1258;61071;-65
2024/04/18 10:35:14;;;;;;;9.00;3.80;;;;;;;15.85;54.40;98409.67;108095;1257;61302;-68
2024/04/18 10:37:49;;;;;;;4.90;3.80;;;;;;;15.89;54.35;98405.92;108135;1253;73444;-66
2024/04/18 10:40:20;;;;;;;5.70;3.60;;;;;;;16.02;54.00;98404.25;108071;1254;71249;-66
2024/04/18 10:42:48;;;;;;;8.70;3.60;;;;;;;15.92;54.24;98405.49;108034;1253;72782;-66
2024/04/18 10:45:15;;;;;;;5.60;3.40;;;;;;;15.90;54.39;98411.16;108147;1253;61119;-66
2024/04/18 10:47:43;;;;;;;8.10;3.00;;;;;;;15.89;54.38;98407.33;107952;1253;61208;-66
2024/04/18 10:50:11;;;;;;;5.30;3.10;;;;;;;15.81;54.59;98409.61;108072;1253;75352;-65
2024/04/18 10:52:38;;;;;;;7.30;3.40;;;;;;;15.86;54.41;98403.53;108069;1253;71274;-65
2024/04/18 10:55:06;;;;;;;5.40;3.00;;;;;;;15.83;54.27;98402.20;107927;1253;71271;-65
2024/04/18 10:57:33;;;;;;;4.30;3.00;;;;;;;15.67;54.41;98395.69;108056;1254;61067;-65
2024/04/18 11:00:01;;;;;;;6.30;3.60;;;;;;;15.56;54.41;98387.98;108087;1253;60425;-66
2024/04/18 11:02:28;;;;;;;12.80;3.80;;;;;;;15.48;54.63;98373.98;108118;1253;74398;-65
2024/04/18 11:04:58;;;;;;;6.30;3.20;;;;;;;15.40;55.02;98361.10;107876;1253;72494;-66
2024/04/18 11:07:47;;;;;;;4.40;2.90;;;;;;;15.43;55.20;98361.38;108097;1251;75011;-65
2024/04/18 11:10:15;;;;;;;3.70;3.00;;;;;;;15.57;55.02;98369.88;108130;1251;61925;-65
2024/04/18 11:12:42;;;;;;;6.40;3.30;;;;;;;15.60;54.87;98378.98;108074;1251;61046;-66
2024/04/18 11:15:10;;;;;;;4.40;3.20;;;;;;;15.40;55.37;98400.67;108000;1251;74676;-65
2024/04/18 11:17:37;;;;;;;3.70;2.90;;;;;;;15.55;55.11;98416.91;108130;1253;72080;-65
2024/04/18 11:20:08;;;;;;;3.70;2.50;;;;;;;15.53;55.08;98421.31;108131;1253;72625;-65
2024/04/18 11:22:37;;;;;;;5.70;3.50;;;;;;;15.65;54.91;98419.98;107926;1253;61434;-65
2024/04/18 11:25:06;;;;;;;7.30;3.60;;;;;;;15.56;54.73;98415.80;108176;1251;61160;-66
2024/04/18 11:27:37;;;;;;;4.20;2.90;;;;;;;15.59;54.74;98400.80;108133;1251;73818;-65
2024/04/18 11:30:06;;;;;;;7.70;3.30;;;;;;;15.58;54.64;98393.33;108154;1257;72835;-65
2024/04/18 11:32:33;;;;;;;3.90;2.70;;;;;;;15.53;54.59;98381.68;108085;1253;73616;-65
2024/04/18 11:35:01;;;;;;;3.80;2.70;;;;;;;15.58;54.42;98374.95;108033;1251;61820;-65
2024/04/18 11:37:41;;;;;;;3.70;2.60;;;;;;;15.71;54.28;98372.96;108194;1252;59418;-65
2024/04/18 11:40:09;;;;;;;3.30;2.60;;;;;;;15.68;54.00;98370.31;108008;1251;72720;-65
2024/04/18 11:42:37;;;;;;;4.40;2.90;;;;;;;15.76;53.95;98367.39;108261;1251;69461;-65